sensor_id;sensor_type;location;lat;lon;timestamp;pressure;altitude;pressure_sealevel;temperature;humidity
46291;BME280;32023;44.444;26.006;2022-07-29T00:00:14;100472.84;;;23.48;63.50
46291;BME280;32023;44.444;26.006;2022-07-29T00:02:40;100474.31;;;23.45;63.42
46291;BME280;32023;44.444;26.006;2022-07-29T00:05:08;100473.03;;;23.43;63.52
46291;BME280;32023;44.444;26.006;2022-07-29T00:07:35;100485.75;;;23.40;63.54
46291;BME280;32023;44.444;26.006;2022-07-29T00:10:01;100474.84;;;23.39;63.54
46291;BME280;32023;44.444;26.006;2022-07-29T00:12:28;100484.81;;;23.36;63.75
46291;BME280;32023;44.444;26.006;2022-07-29T00:14:55;100478.81;;;23.38;63.87
46291;BME280;32023;44.444;26.006;2022-07-29T00:17:23;100480.34;;;23.35;64.35
46291;BME280;32023;44.444;26.006;2022-07-29T00:19:50;100489.31;;;23.29;64.78
46291;BME280;32023;44.444;26.006;2022-07-29T00:22:16;100486.50;;;23.29;64.65
46291;BME280;32023;44.444;26.006;2022-07-29T00:24:43;100489.31;;;23.29;64.67
46291;BME280;32023;44.444;26.006;2022-07-29T00:27:12;100486.50;;;23.29;64.74
46291;BME280;32023;44.444;26.006;2022-07-29T00:29:38;100484.84;;;23.28;64.63
46291;BME280;32023;44.444;26.006;2022-07-29T00:32:05;100489.19;;;23.25;65.03
46291;BME280;32023;44.444;26.006;2022-07-29T00:34:33;100491.03;;;23.21;65.34
46291;BME280;32023;44.444;26.006;2022-07-29T00:37:18;100491.72;;;23.18;65.74
46291;BME280;32023;44.444;26.006;2022-07-29T00:39:44;100486.94;;;23.19;65.74
46291;BME280;32023;44.444;26.006;2022-07-29T00:42:11;100484.44;;;23.17;65.75
46291;BME280;32023;44.444;26.006;2022-07-29T00:44:39;100486.44;;;23.17;65.81
46291;BME280;32023;44.444;26.006;2022-07-29T00:47:06;100491.44;;;23.11;66.00
46291;BME280;32023;44.444;26.006;2022-07-29T00:49:33;100483.53;;;23.04;66.24
46291;BME280;32023;44.444;26.006;2022-07-29T00:52:02;100495.44;;;23.01;66.41
46291;BME280;32023;44.444;26.006;2022-07-29T00:54:29;100490.50;;;22.98;66.70
46291;BME280;32023;44.444;26.006;2022-07-29T00:57:01;100493.50;;;22.93;67.03
46291;BME280;32023;44.444;26.006;2022-07-29T00:59:28;100492.22;;;22.91;67.30
46291;BME280;32023;44.444;26.006;2022-07-29T01:05:07;100497.19;;;22.85;67.78
46291;BME280;32023;44.444;26.006;2022-07-29T01:07:51;100496.22;;;22.81;67.99
46291;BME280;32023;44.444;26.006;2022-07-29T01:10:21;100497.88;;;22.82;67.97
46291;BME280;32023;44.444;26.006;2022-07-29T01:12:57;100501.03;;;22.81;67.90
46291;BME280;32023;44.444;26.006;2022-07-29T01:15:24;100496.91;;;22.78;68.06
46291;BME280;32023;44.444;26.006;2022-07-29T01:23:39;100496.59;;;22.71;68.18
46291;BME280;32023;44.444;26.006;2022-07-29T01:29:11;100475.47;;;22.65;68.45
46291;BME280;32023;44.444;26.006;2022-07-29T01:32:06;100480.59;;;22.63;68.67
46291;BME280;32023;44.444;26.006;2022-07-29T01:34:52;100477.78;;;22.63;68.75
46291;BME280;32023;44.444;26.006;2022-07-29T01:37:28;100473.34;;;22.62;68.83
46291;BME280;32023;44.444;26.006;2022-07-29T01:39:57;100472.38;;;22.58;69.06
46291;BME280;32023;44.444;26.006;2022-07-29T01:42:38;100478.47;;;22.60;69.18
46291;BME280;32023;44.444;26.006;2022-07-29T01:48:27;100469.72;;;22.62;69.08
46291;BME280;32023;44.444;26.006;2022-07-29T01:53:54;100466.69;;;22.67;68.91
46291;BME280;32023;44.444;26.006;2022-07-29T01:56:23;100473.13;;;22.67;68.89
46291;BME280;32023;44.444;26.006;2022-07-29T01:58:54;100465.25;;;22.69;68.79
46291;BME280;32023;44.444;26.006;2022-07-29T02:01:22;100474.00;;;22.68;68.87
46291;BME280;32023;44.444;26.006;2022-07-29T02:03:51;100472.16;;;22.72;68.85
46291;BME280;32023;44.444;26.006;2022-07-29T02:06:21;100471.16;;;22.76;69.17
46291;BME280;32023;44.444;26.006;2022-07-29T02:08:50;100477.75;;;22.80;69.04
46291;BME280;32023;44.444;26.006;2022-07-29T02:11:19;100476.09;;;22.79;69.30
46291;BME280;32023;44.444;26.006;2022-07-29T02:13:47;100468.13;;;22.81;69.10
46291;BME280;32023;44.444;26.006;2022-07-29T02:16:15;100476.91;;;22.80;69.09
46291;BME280;32023;44.444;26.006;2022-07-29T02:18:45;100471.63;;;22.78;68.69
46291;BME280;32023;44.444;26.006;2022-07-29T02:21:17;100469.19;;;22.77;68.36
46291;BME280;32023;44.444;26.006;2022-07-29T02:23:46;100464.22;;;22.74;68.36
46291;BME280;32023;44.444;26.006;2022-07-29T02:26:16;100466.22;;;22.73;68.51
46291;BME280;32023;44.444;26.006;2022-07-29T02:28:43;100472.50;;;22.70;68.27
46291;BME280;32023;44.444;26.006;2022-07-29T02:31:13;100476.47;;;22.69;68.49
46291;BME280;32023;44.444;26.006;2022-07-29T02:33:41;100466.41;;;22.68;68.67
46291;BME280;32023;44.444;26.006;2022-07-29T02:36:08;100460.47;;;22.61;68.62
46291;BME280;32023;44.444;26.006;2022-07-29T02:38:38;100469.25;;;22.51;68.76
46291;BME280;32023;44.444;26.006;2022-07-29T02:41:42;100471.56;;;22.49;68.95
46291;BME280;32023;44.444;26.006;2022-07-29T02:44:17;100474.72;;;22.47;68.96
46291;BME280;32023;44.444;26.006;2022-07-29T02:46:51;100479.16;;;22.48;68.98
46291;BME280;32023;44.444;26.006;2022-07-29T02:52:39;100480.00;;;22.49;68.93
46291;BME280;32023;44.444;26.006;2022-07-29T02:55:12;100482.13;;;22.52;68.94
46291;BME280;32023;44.444;26.006;2022-07-29T02:58:02;100474.38;;;22.49;68.97
46291;BME280;32023;44.444;26.006;2022-07-29T03:00:36;100467.94;;;22.48;68.94
46291;BME280;32023;44.444;26.006;2022-07-29T03:03:07;100464.31;;;22.48;69.03
46291;BME280;32023;44.444;26.006;2022-07-29T03:05:35;100469.91;;;22.48;69.02
46291;BME280;32023;44.444;26.006;2022-07-29T03:08:06;100471.56;;;22.49;68.94
46291;BME280;32023;44.444;26.006;2022-07-29T03:10:35;100474.56;;;22.44;68.93
46291;BME280;32023;44.444;26.006;2022-07-29T03:13:05;100472.94;;;22.43;68.97
46291;BME280;32023;44.444;26.006;2022-07-29T03:15:32;100494.56;;;22.42;68.67
46291;BME280;32023;44.444;26.006;2022-07-29T03:18:00;100491.41;;;22.44;68.44
46291;BME280;32023;44.444;26.006;2022-07-29T03:20:27;100494.34;;;22.47;68.29
46291;BME280;32023;44.444;26.006;2022-07-29T03:22:53;100492.19;;;22.53;67.79
46291;BME280;32023;44.444;26.006;2022-07-29T03:25:20;100489.22;;;22.58;67.44
46291;BME280;32023;44.444;26.006;2022-07-29T03:27:47;100497.94;;;22.65;67.17
46291;BME280;32023;44.444;26.006;2022-07-29T03:30:28;100495.59;;;22.67;66.81
46291;BME280;32023;44.444;26.006;2022-07-29T03:32:56;100500.09;;;22.68;66.74
46291;BME280;32023;44.444;26.006;2022-07-29T03:35:23;100507.00;;;22.71;66.59
46291;BME280;32023;44.444;26.006;2022-07-29T03:37:49;100503.72;;;22.69;66.69
46291;BME280;32023;44.444;26.006;2022-07-29T03:40:27;100500.09;;;22.68;66.81
46291;BME280;32023;44.444;26.006;2022-07-29T03:42:59;100493.66;;;22.68;66.79
46291;BME280;32023;44.444;26.006;2022-07-29T03:45:29;100503.19;;;22.67;66.79
46291;BME280;32023;44.444;26.006;2022-07-29T03:48:05;100512.44;;;22.67;66.88
46291;BME280;32023;44.444;26.006;2022-07-29T03:50:33;100518.91;;;22.68;67.03
46291;BME280;32023;44.444;26.006;2022-07-29T03:53:01;100491.53;;;22.56;67.03
46291;BME280;32023;44.444;26.006;2022-07-29T03:55:37;100520.72;;;22.72;66.91
46291;BME280;32023;44.444;26.006;2022-07-29T03:58:07;100521.69;;;22.76;66.83
46291;BME280;32023;44.444;26.006;2022-07-29T04:07:14;100517.34;;;22.87;66.79
46291;BME280;32023;44.444;26.006;2022-07-29T04:09:43;100521.28;;;22.95;66.50
46291;BME280;32023;44.444;26.006;2022-07-29T04:12:10;100515.44;;;23.00;66.37
46291;BME280;32023;44.444;26.006;2022-07-29T04:14:36;100523.53;;;23.01;66.49
46291;BME280;32023;44.444;26.006;2022-07-29T04:17:04;100521.22;;;23.03;66.47
46291;BME280;32023;44.444;26.006;2022-07-29T04:19:31;100522.03;;;23.04;66.64
46291;BME280;32023;44.444;26.006;2022-07-29T04:22:01;100522.03;;;23.04;66.63
46291;BME280;32023;44.444;26.006;2022-07-29T04:24:28;100520.03;;;23.04;66.70
46291;BME280;32023;44.444;26.006;2022-07-29T04:26:54;100526.03;;;23.03;66.75
46291;BME280;32023;44.444;26.006;2022-07-29T04:29:20;100525.53;;;23.01;66.89
46291;BME280;32023;44.444;26.006;2022-07-29T04:31:49;100529.00;;;22.98;66.91
46291;BME280;32023;44.444;26.006;2022-07-29T04:34:15;100516.94;;;22.97;67.09
46291;BME280;32023;44.444;26.006;2022-07-29T04:36:47;100528.31;;;23.01;66.96
46291;BME280;32023;44.444;26.006;2022-07-29T04:39:16;100516.94;;;22.97;66.97
46291;BME280;32023;44.444;26.006;2022-07-29T04:41:44;100528.31;;;23.01;66.78
46291;BME280;32023;44.444;26.006;2022-07-29T04:44:10;100530.28;;;23.09;66.72
46291;BME280;32023;44.444;26.006;2022-07-29T04:46:37;100527.59;;;23.13;66.67
46291;BME280;32023;44.444;26.006;2022-07-29T04:49:04;100529.53;;;23.21;66.38
46291;BME280;32023;44.444;26.006;2022-07-29T04:51:30;100533.78;;;23.27;66.23
46291;BME280;32023;44.444;26.006;2022-07-29T04:53:57;100542.53;;;23.34;65.87
46291;BME280;32023;44.444;26.006;2022-07-29T04:56:25;100532.72;;;23.40;65.40
46291;BME280;32023;44.444;26.006;2022-07-29T04:58:54;100531.03;;;23.47;65.43
46291;BME280;32023;44.444;26.006;2022-07-29T05:01:21;100537.06;;;23.58;65.08
46291;BME280;32023;44.444;26.006;2022-07-29T05:03:47;100499.63;;;23.45;64.64
46291;BME280;32023;44.444;26.006;2022-07-29T05:06:16;100534.34;;;23.70;64.14
46291;BME280;32023;44.444;26.006;2022-07-29T05:08:42;100536.97;;;23.75;63.89
46291;BME280;32023;44.444;26.006;2022-07-29T05:11:09;100540.38;;;23.81;63.28
46291;BME280;32023;44.444;26.006;2022-07-29T05:13:36;100545.56;;;23.91;62.91
46291;BME280;32023;44.444;26.006;2022-07-29T05:16:02;100544.53;;;23.95;62.58
46291;BME280;32023;44.444;26.006;2022-07-29T05:18:29;100546.94;;;24.06;62.15
46291;BME280;32023;44.444;26.006;2022-07-29T05:20:56;100552.50;;;24.14;61.61
46291;BME280;32023;44.444;26.006;2022-07-29T05:23:25;100552.63;;;24.18;60.88
46291;BME280;32023;44.444;26.006;2022-07-29T05:25:51;100554.53;;;24.26;60.93
46291;BME280;32023;44.444;26.006;2022-07-29T05:28:20;100553.84;;;24.29;60.48
46291;BME280;32023;44.444;26.006;2022-07-29T05:30:46;100551.97;;;24.33;60.47
46291;BME280;32023;44.444;26.006;2022-07-29T05:33:14;100548.25;;;24.41;60.32
46291;BME280;32023;44.444;26.006;2022-07-29T05:35:40;100561.66;;;24.56;60.12
46291;BME280;32023;44.444;26.006;2022-07-29T05:38:07;100557.47;;;24.62;59.23
46291;BME280;32023;44.444;26.006;2022-07-29T05:40:33;100559.09;;;24.63;58.60
46291;BME280;32023;44.444;26.006;2022-07-29T05:43:00;100564.50;;;24.68;58.42
46291;BME280;32023;44.444;26.006;2022-07-29T05:45:26;100555.13;;;24.76;58.47
46291;BME280;32023;44.444;26.006;2022-07-29T05:47:53;100562.69;;;24.84;57.45
46291;BME280;32023;44.444;26.006;2022-07-29T05:50:20;100566.91;;;24.90;56.79
46291;BME280;32023;44.444;26.006;2022-07-29T05:52:49;100561.38;;;24.94;56.53
46291;BME280;32023;44.444;26.006;2022-07-29T05:55:27;100566.22;;;25.06;56.29
46291;BME280;32023;44.444;26.006;2022-07-29T05:57:53;100567.28;;;25.13;56.32
46291;BME280;32023;44.444;26.006;2022-07-29T06:00:20;100568.00;;;25.22;55.90
46291;BME280;32023;44.444;26.006;2022-07-29T06:02:46;100559.63;;;25.26;55.76
46291;BME280;32023;44.444;26.006;2022-07-29T06:05:13;100568.31;;;25.33;55.41
46291;BME280;32023;44.444;26.006;2022-07-29T06:07:41;100561.25;;;25.39;55.45
46291;BME280;32023;44.444;26.006;2022-07-29T06:10:07;100568.78;;;25.47;55.20
46291;BME280;32023;44.444;26.006;2022-07-29T06:12:34;100568.06;;;25.50;55.25
46291;BME280;32023;44.444;26.006;2022-07-29T06:15:03;100566.91;;;25.63;55.01
46291;BME280;32023;44.444;26.006;2022-07-29T06:17:30;100557.72;;;25.66;54.55
46291;BME280;32023;44.444;26.006;2022-07-29T06:19:56;100564.84;;;25.76;54.58
46291;BME280;32023;44.444;26.006;2022-07-29T06:22:25;100553.81;;;25.83;54.56
46291;BME280;32023;44.444;26.006;2022-07-29T06:24:55;100558.72;;;25.86;54.12
46291;BME280;32023;44.444;26.006;2022-07-29T06:27:23;100555.75;;;25.95;53.63
46291;BME280;32023;44.444;26.006;2022-07-29T06:29:55;100548.06;;;26.07;52.98
46291;BME280;32023;44.444;26.006;2022-07-29T06:32:22;100562.25;;;26.23;52.51
46291;BME280;32023;44.444;26.006;2022-07-29T06:34:48;100551.25;;;26.33;51.88
46291;BME280;32023;44.444;26.006;2022-07-29T06:37:22;100553.91;;;26.42;51.61
46291;BME280;32023;44.444;26.006;2022-07-29T06:39:48;100557.13;;;26.56;51.48
46291;BME280;32023;44.444;26.006;2022-07-29T06:42:34;100553.75;;;26.66;50.71
46291;BME280;32023;44.444;26.006;2022-07-29T06:45:04;100554.16;;;26.80;50.42
46291;BME280;32023;44.444;26.006;2022-07-29T06:47:31;100549.97;;;26.90;50.05
46291;BME280;32023;44.444;26.006;2022-07-29T06:49:57;100542.50;;;26.98;49.49
46291;BME280;32023;44.444;26.006;2022-07-29T06:52:32;100545.78;;;27.00;48.27
46291;BME280;32023;44.444;26.006;2022-07-29T06:54:59;100550.78;;;27.06;47.92
46291;BME280;32023;44.444;26.006;2022-07-29T06:57:25;100546.63;;;27.00;47.92
46291;BME280;32023;44.444;26.006;2022-07-29T06:59:52;100536.84;;;26.98;48.49
46291;BME280;32023;44.444;26.006;2022-07-29T07:02:38;100545.97;;;27.07;48.26
46291;BME280;32023;44.444;26.006;2022-07-29T07:05:07;100539.91;;;27.24;47.56
46291;BME280;32023;44.444;26.006;2022-07-29T07:07:33;100543.63;;;27.44;47.81
46291;BME280;32023;44.444;26.006;2022-07-29T07:10:00;100551.06;;;27.67;47.60
46291;BME280;32023;44.444;26.006;2022-07-29T07:12:26;100541.31;;;27.84;46.59
46291;BME280;32023;44.444;26.006;2022-07-29T07:14:53;100535.56;;;28.00;45.73
46291;BME280;32023;44.444;26.006;2022-07-29T07:17:22;100541.19;;;28.15;44.72
46291;BME280;32023;44.444;26.006;2022-07-29T07:19:49;100541.72;;;28.21;44.61
46291;BME280;32023;44.444;26.006;2022-07-29T07:22:17;100538.78;;;28.37;43.93
46291;BME280;32023;44.444;26.006;2022-07-29T07:24:44;100538.66;;;28.52;43.28
46291;BME280;32023;44.444;26.006;2022-07-29T07:27:10;100531.94;;;28.60;43.22
46291;BME280;32023;44.444;26.006;2022-07-29T07:29:36;100540.28;;;28.73;42.59
46291;BME280;32023;44.444;26.006;2022-07-29T07:32:07;100536.94;;;28.90;42.54
46291;BME280;32023;44.444;26.006;2022-07-29T07:34:33;100541.22;;;29.03;41.86
46291;BME280;32023;44.444;26.006;2022-07-29T07:37:05;100533.72;;;29.14;41.69
46291;BME280;32023;44.444;26.006;2022-07-29T07:39:31;100536.78;;;29.28;40.99
46291;BME280;32023;44.444;26.006;2022-07-29T07:41:58;100538.31;;;29.48;40.38
46291;BME280;32023;44.444;26.006;2022-07-29T07:44:24;100539.03;;;29.68;39.96
46291;BME280;32023;44.444;26.006;2022-07-29T07:46:51;100543.41;;;29.65;40.09
46291;BME280;32023;44.444;26.006;2022-07-29T07:49:25;100539.97;;;29.79;40.00
46291;BME280;32023;44.444;26.006;2022-07-29T07:51:54;100543.44;;;29.95;38.90
46291;BME280;32023;44.444;26.006;2022-07-29T07:54:23;100537.19;;;30.13;38.58
46291;BME280;32023;44.444;26.006;2022-07-29T07:56:50;100539.81;;;30.28;38.02
46291;BME280;32023;44.444;26.006;2022-07-29T07:59:24;100544.06;;;30.45;37.25
46291;BME280;32023;44.444;26.006;2022-07-29T08:01:50;100539.00;;;30.65;37.42
46291;BME280;32023;44.444;26.006;2022-07-29T08:04:17;100540.72;;;30.73;35.77
46291;BME280;32023;44.444;26.006;2022-07-29T08:06:43;100535.75;;;30.63;35.79
46291;BME280;32023;44.444;26.006;2022-07-29T08:09:21;100548.28;;;30.58;36.76
46291;BME280;32023;44.444;26.006;2022-07-29T08:11:51;100543.44;;;30.62;36.71
46291;BME280;32023;44.444;26.006;2022-07-29T08:14:18;100544.47;;;30.84;35.06
46291;BME280;32023;44.444;26.006;2022-07-29T08:16:47;100539.78;;;31.02;34.90
46291;BME280;32023;44.444;26.006;2022-07-29T08:19:17;100543.16;;;31.18;35.09
46291;BME280;32023;44.444;26.006;2022-07-29T08:21:43;100543.31;;;31.39;34.75
46291;BME280;32023;44.444;26.006;2022-07-29T08:24:19;100545.91;;;31.59;34.48
46291;BME280;32023;44.444;26.006;2022-07-29T08:27:10;100551.59;;;31.59;34.24
46291;BME280;32023;44.444;26.006;2022-07-29T08:29:37;100533.31;;;31.60;33.45
46291;BME280;32023;44.444;26.006;2022-07-29T08:32:04;100534.66;;;31.80;32.64
46291;BME280;32023;44.444;26.006;2022-07-29T08:34:36;100533.53;;;32.02;32.55
46291;BME280;32023;44.444;26.006;2022-07-29T08:37:02;100531.59;;;32.20;31.87
46291;BME280;32023;44.444;26.006;2022-07-29T08:39:29;100526.72;;;32.31;32.22
46291;BME280;32023;44.444;26.006;2022-07-29T08:41:58;100528.00;;;32.52;32.23
46291;BME280;32023;44.444;26.006;2022-07-29T08:44:25;100526.81;;;32.60;32.37
46291;BME280;32023;44.444;26.006;2022-07-29T08:46:52;100519.09;;;32.78;32.39
46291;BME280;32023;44.444;26.006;2022-07-29T08:49:22;100521.97;;;32.92;32.18
46291;BME280;32023;44.444;26.006;2022-07-29T08:51:59;100520.31;;;33.05;31.37
46291;BME280;32023;44.444;26.006;2022-07-29T08:54:26;100513.81;;;33.19;31.36
46291;BME280;32023;44.444;26.006;2022-07-29T08:56:58;100514.59;;;33.40;30.87
46291;BME280;32023;44.444;26.006;2022-07-29T08:59:29;100526.84;;;33.37;28.66
46291;BME280;32023;44.444;26.006;2022-07-29T09:01:58;100515.00;;;33.28;28.31
46291;BME280;32023;44.444;26.006;2022-07-29T09:04:29;100524.00;;;33.30;28.90
46291;BME280;32023;44.444;26.006;2022-07-29T09:06:58;100519.50;;;33.29;27.94
46291;BME280;32023;44.444;26.006;2022-07-29T09:09:30;100508.06;;;33.44;28.53
46291;BME280;32023;44.444;26.006;2022-07-29T09:12:02;100512.94;;;33.64;30.21
46291;BME280;32023;44.444;26.006;2022-07-29T09:14:30;100502.22;;;33.93;28.87
46291;BME280;32023;44.444;26.006;2022-07-29T09:16:59;100512.25;;;34.29;28.30
46291;BME280;32023;44.444;26.006;2022-07-29T09:19:31;100520.78;;;34.40;26.55
46291;BME280;32023;44.444;26.006;2022-07-29T09:22:00;100523.63;;;34.44;26.25
46291;BME280;32023;44.444;26.006;2022-07-29T09:24:41;100505.56;;;34.54;26.34
46291;BME280;32023;44.444;26.006;2022-07-29T09:27:18;100512.41;;;34.74;25.96
46291;BME280;32023;44.444;26.006;2022-07-29T09:29:46;100507.44;;;34.82;25.65
46291;BME280;32023;44.444;26.006;2022-07-29T09:32:16;100512.97;;;35.03;25.57
46291;BME280;32023;44.444;26.006;2022-07-29T09:34:43;100513.78;;;35.03;25.15
46291;BME280;32023;44.444;26.006;2022-07-29T09:37:09;100514.25;;;34.98;25.10
46291;BME280;32023;44.444;26.006;2022-07-29T09:39:39;100510.38;;;35.22;24.82
46291;BME280;32023;44.444;26.006;2022-07-29T09:42:12;100503.56;;;35.47;24.18
46291;BME280;32023;44.444;26.006;2022-07-29T09:44:49;100508.34;;;35.60;24.21
46291;BME280;32023;44.444;26.006;2022-07-29T09:47:17;100506.00;;;35.86;24.62
46291;BME280;32023;44.444;26.006;2022-07-29T09:49:55;100503.31;;;36.05;24.33
46291;BME280;32023;44.444;26.006;2022-07-29T09:52:27;100503.78;;;36.00;24.17
46291;BME280;32023;44.444;26.006;2022-07-29T09:55:04;100499.19;;;36.10;23.68
46291;BME280;32023;44.444;26.006;2022-07-29T09:57:30;100495.06;;;36.07;23.74
46291;BME280;32023;44.444;26.006;2022-07-29T10:00:04;100490.09;;;36.42;23.48
46291;BME280;32023;44.444;26.006;2022-07-29T10:02:36;100496.50;;;36.80;22.72
46291;BME280;32023;44.444;26.006;2022-07-29T10:05:05;100490.38;;;37.04;22.44
46291;BME280;32023;44.444;26.006;2022-07-29T10:07:54;100492.84;;;37.26;22.37
46291;BME280;32023;44.444;26.006;2022-07-29T10:10:23;100486.91;;;37.79;21.79
46291;BME280;32023;44.444;26.006;2022-07-29T10:12:55;100494.66;;;38.38;21.50
46291;BME280;32023;44.444;26.006;2022-07-29T10:15:23;100482.16;;;38.96;20.67
46291;BME280;32023;44.444;26.006;2022-07-29T10:17:51;100480.53;;;38.95;20.65
46291;BME280;32023;44.444;26.006;2022-07-29T10:20:19;100482.88;;;39.17;20.51
46291;BME280;32023;44.444;26.006;2022-07-29T10:22:47;100478.97;;;39.68;19.74
46291;BME280;32023;44.444;26.006;2022-07-29T10:25:16;100481.69;;;40.42;18.52
46291;BME280;32023;44.444;26.006;2022-07-29T10:27:43;100467.56;;;41.20;17.65
46291;BME280;32023;44.444;26.006;2022-07-29T10:30:11;100470.50;;;42.29;16.79
46291;BME280;32023;44.444;26.006;2022-07-29T10:44:18;100441.94;;;49.50;10.64
46291;BME280;32023;44.444;26.006;2022-07-29T10:46:45;100423.94;;;49.96;10.83
46291;BME280;32023;44.444;26.006;2022-07-29T10:49:14;100434.59;;;50.33;10.79
46291;BME280;32023;44.444;26.006;2022-07-29T10:57:21;100425.84;;;50.38;10.56
46291;BME280;32023;44.444;26.006;2022-07-29T11:05:21;100420.97;;;50.63;9.77
46291;BME280;32023;44.444;26.006;2022-07-29T11:13:56;100403.94;;;49.89;10.48
46291;BME280;32023;44.444;26.006;2022-07-29T11:17:02;100398.72;;;47.29;11.77
46291;BME280;32023;44.444;26.006;2022-07-29T11:19:34;100399.53;;;45.76;13.49
46291;BME280;32023;44.444;26.006;2022-07-29T11:22:08;100400.25;;;45.32;13.40
46291;BME280;32023;44.444;26.006;2022-07-29T11:24:43;100395.34;;;44.01;14.23
46291;BME280;32023;44.444;26.006;2022-07-29T11:27:35;100390.09;;;43.73;14.82
46291;BME280;32023;44.444;26.006;2022-07-29T11:30:06;100380.22;;;43.79;15.18
46291;BME280;32023;44.444;26.006;2022-07-29T11:32:40;100373.56;;;44.72;14.26
46291;BME280;32023;44.444;26.006;2022-07-29T11:35:19;100394.34;;;45.03;14.09
46291;BME280;32023;44.444;26.006;2022-07-29T11:43:56;100375.16;;;39.68;18.57
46291;BME280;32023;44.444;26.006;2022-07-29T11:46:45;100378.38;;;37.83;19.48
46291;BME280;32023;44.444;26.006;2022-07-29T11:49:25;100364.34;;;36.63;21.40
46291;BME280;32023;44.444;26.006;2022-07-29T11:51:55;100355.41;;;36.58;20.96
46291;BME280;32023;44.444;26.006;2022-07-29T11:54:25;100361.09;;;36.61;21.52
46291;BME280;32023;44.444;26.006;2022-07-29T11:57:01;100355.72;;;36.40;22.54
46291;BME280;32023;44.444;26.006;2022-07-29T11:59:27;100356.56;;;36.37;22.70
46291;BME280;32023;44.444;26.006;2022-07-29T12:01:59;100344.97;;;36.44;22.05
46291;BME280;32023;44.444;26.006;2022-07-29T12:04:28;100362.81;;;36.55;21.59
46291;BME280;32023;44.444;26.006;2022-07-29T12:06:56;100353.88;;;36.50;21.96
46291;BME280;32023;44.444;26.006;2022-07-29T12:09:23;100353.06;;;36.49;21.15
46291;BME280;32023;44.444;26.006;2022-07-29T12:11:57;100349.50;;;36.18;21.56
46291;BME280;32023;44.444;26.006;2022-07-29T12:14:27;100338.03;;;36.18;21.98
46291;BME280;32023;44.444;26.006;2022-07-29T12:17:26;100341.78;;;36.39;22.39
46291;BME280;32023;44.444;26.006;2022-07-29T12:19:54;100334.94;;;36.56;22.33
46291;BME280;32023;44.444;26.006;2022-07-29T12:22:32;100324.84;;;36.48;22.70
46291;BME280;32023;44.444;26.006;2022-07-29T12:25:12;100324.56;;;36.39;22.76
46291;BME280;32023;44.444;26.006;2022-07-29T12:27:42;100317.81;;;36.49;22.62
46291;BME280;32023;44.444;26.006;2022-07-29T12:30:15;100310.09;;;36.69;22.60
46291;BME280;32023;44.444;26.006;2022-07-29T12:32:45;100315.81;;;36.92;22.47
46291;BME280;32023;44.444;26.006;2022-07-29T12:35:34;100305.28;;;36.86;22.19
46291;BME280;32023;44.444;26.006;2022-07-29T12:38:01;100309.44;;;36.61;22.53
46291;BME280;32023;44.444;26.006;2022-07-29T12:40:31;100299.56;;;36.39;22.34
46291;BME280;32023;44.444;26.006;2022-07-29T12:43:17;100296.50;;;36.27;22.24
46291;BME280;32023;44.444;26.006;2022-07-29T12:45:50;100286.25;;;36.29;21.74
46291;BME280;32023;44.444;26.006;2022-07-29T12:48:38;100283.69;;;36.08;22.15
46291;BME280;32023;44.444;26.006;2022-07-29T12:51:08;100274.47;;;35.97;22.00
46291;BME280;32023;44.444;26.006;2022-07-29T12:53:38;100275.41;;;35.90;22.15
46291;BME280;32023;44.444;26.006;2022-07-29T12:56:57;100270.66;;;35.80;22.44
46291;BME280;32023;44.444;26.006;2022-07-29T12:59:36;100274.75;;;35.79;22.01
46291;BME280;32023;44.444;26.006;2022-07-29T13:02:03;100266.41;;;35.88;21.65
46291;BME280;32023;44.444;26.006;2022-07-29T13:04:33;100267.59;;;35.91;21.99
46291;BME280;32023;44.444;26.006;2022-07-29T13:07:06;100265.50;;;35.68;22.11
46291;BME280;32023;44.444;26.006;2022-07-29T13:09:43;100262.72;;;35.61;22.36
46291;BME280;32023;44.444;26.006;2022-07-29T13:12:19;100265.84;;;35.43;23.02
46291;BME280;32023;44.444;26.006;2022-07-29T13:15:18;100245.72;;;35.47;22.95
46291;BME280;32023;44.444;26.006;2022-07-29T13:17:54;100257.41;;;35.59;23.05
46291;BME280;32023;44.444;26.006;2022-07-29T13:20:37;100248.41;;;35.61;22.79
46291;BME280;32023;44.444;26.006;2022-07-29T13:23:06;100242.94;;;35.70;22.66
46291;BME280;32023;44.444;26.006;2022-07-29T13:25:35;100246.09;;;35.79;22.93
46291;BME280;32023;44.444;26.006;2022-07-29T13:28:06;100252.47;;;35.90;22.39
46291;BME280;32023;44.444;26.006;2022-07-29T13:30:33;100240.88;;;35.97;22.97
46291;BME280;32023;44.444;26.006;2022-07-29T13:33:15;100240.88;;;35.97;22.92
46291;BME280;32023;44.444;26.006;2022-07-29T13:35:43;100247.22;;;36.08;22.79
46291;BME280;32023;44.444;26.006;2022-07-29T13:38:17;100241.47;;;36.12;22.08
46291;BME280;32023;44.444;26.006;2022-07-29T13:40:46;100243.16;;;36.09;22.06
46291;BME280;32023;44.444;26.006;2022-07-29T13:43:15;100241.25;;;35.99;22.59
46291;BME280;32023;44.444;26.006;2022-07-29T13:45:46;100247.09;;;35.69;22.70
46291;BME280;32023;44.444;26.006;2022-07-29T13:48:28;100237.78;;;35.58;23.03
46291;BME280;32023;44.444;26.006;2022-07-29T13:51:03;100240.16;;;35.66;22.94
46291;BME280;32023;44.444;26.006;2022-07-29T13:53:30;100244.34;;;35.58;23.11
46291;BME280;32023;44.444;26.006;2022-07-29T13:56:01;100245.66;;;35.54;23.24
46291;BME280;32023;44.444;26.006;2022-07-29T13:58:31;100237.69;;;35.38;23.50
46291;BME280;32023;44.444;26.006;2022-07-29T14:00:58;100233.91;;;35.45;23.38